createdAt,value
2018-02-22T00:00:14.856Z,25.20
2018-02-22T00:01:18.253Z,27.10
2018-02-22T00:02:21.595Z,26.50
2018-02-22T00:03:25.117Z,25.20
2018-02-22T00:04:28.429Z,25.90
2018-02-22T00:05:31.799Z,26.92
2018-02-22T00:06:35.188Z,27.50
2018-02-22T00:07:38.567Z,27.25
2018-02-22T00:08:41.896Z,25.17
2018-02-22T00:09:45.842Z,23.52
2018-02-22T00:10:49.180Z,24.08
2018-02-22T00:11:52.512Z,25.17
2018-02-22T00:12:55.969Z,27.20
2018-02-22T00:13:59.278Z,27.42
2018-02-22T00:15:02.620Z,26.37
2018-02-22T00:16:05.981Z,24.45
2018-02-22T00:17:09.353Z,25.77
2018-02-22T00:18:12.705Z,26.37
2018-02-22T00:19:16.038Z,25.25
2018-02-22T00:20:19.415Z,28.40
2018-02-22T00:21:22.820Z,26.37
2018-02-22T00:22:26.211Z,25.12
2018-02-22T00:23:29.544Z,24.05
2018-02-22T00:24:32.987Z,25.33
2018-02-22T00:25:36.350Z,24.77
2018-02-22T00:26:39.746Z,25.88
2018-02-22T00:27:43.159Z,25.48
2018-02-22T00:28:46.585Z,26.60
2018-02-22T00:29:49.954Z,25.52
2018-02-22T00:30:53.290Z,24.58
2018-02-22T00:31:56.786Z,23.92
2018-02-22T00:33:00.168Z,25.12
2018-02-22T00:34:03.469Z,28.02
2018-02-22T00:35:06.824Z,26.85
2018-02-22T00:36:10.149Z,25.58
2018-02-22T00:37:13.550Z,25.70
2018-02-22T00:38:17.104Z,26.20
2018-02-22T00:39:20.511Z,27.10
2018-02-22T00:40:23.853Z,25.00
2018-02-22T00:41:27.180Z,24.98
2018-02-22T00:42:30.698Z,25.33
2018-02-22T00:43:34.540Z,26.45
2018-02-22T00:44:38.180Z,25.45
2018-02-22T00:45:42.199Z,26.40
2018-02-22T00:46:45.539Z,24.80
2018-02-22T00:47:48.891Z,26.42
2018-02-22T00:48:52.275Z,24.73
2018-02-22T00:49:55.696Z,24.08
2018-02-22T00:50:59.011Z,27.35
2018-02-22T00:52:02.586Z,28.00
2018-02-22T00:53:05.926Z,24.83
2018-02-22T00:54:09.720Z,26.12
2018-02-22T00:55:13.036Z,25.70
2018-02-22T00:56:16.409Z,26.17
2018-02-22T00:57:19.721Z,25.55
2018-02-22T00:58:23.161Z,25.85
2018-02-22T00:59:26.481Z,25.75
2018-02-22T01:00:29.869Z,26.58
2018-02-22T01:01:33.264Z,27.10
2018-02-22T01:02:36.629Z,27.02
2018-02-22T01:03:39.985Z,25.90
2018-02-22T01:04:43.311Z,27.37
2018-02-22T01:05:46.685Z,26.50
2018-02-22T01:06:50.034Z,25.95
2018-02-22T01:07:53.399Z,21.60
2018-02-22T01:08:56.774Z,24.30
2018-02-22T01:10:00.159Z,24.20
2018-02-22T01:11:04.546Z,25.80
2018-02-22T01:12:07.942Z,26.62
2018-02-22T01:13:11.742Z,27.70
2018-02-22T01:14:15.118Z,24.90
2018-02-22T01:15:18.535Z,25.05
2018-02-22T01:16:21.859Z,25.85
2018-02-22T01:17:25.270Z,25.58
2018-02-22T01:18:28.591Z,25.75
2018-02-22T01:19:31.937Z,26.98
2018-02-22T01:20:35.327Z,27.85
2018-02-22T01:21:38.701Z,24.58
2018-02-22T01:22:42.036Z,26.70
2018-02-22T01:23:45.383Z,25.45
2018-02-22T01:24:48.811Z,25.35
2018-02-22T01:25:56.277Z,24.90
2018-02-22T01:26:59.673Z,24.27
2018-02-22T01:28:03.009Z,24.98
2018-02-22T01:29:06.456Z,26.00
2018-02-22T01:30:09.901Z,27.35
2018-02-22T01:31:13.238Z,24.77
2018-02-22T01:32:16.653Z,26.12
2018-02-22T01:33:20.062Z,24.45
2018-02-22T01:34:23.506Z,24.75
2018-02-22T01:35:26.944Z,24.63
2018-02-22T01:36:30.386Z,27.27
2018-02-22T01:37:36.053Z,25.65
2018-02-22T01:38:40.622Z,24.73
2018-02-22T01:39:44.498Z,26.45
2018-02-22T01:40:48.007Z,25.75
2018-02-22T01:41:52.058Z,27.27
2018-02-22T01:42:55.472Z,25.92
2018-02-22T01:43:58.845Z,25.58
2018-02-22T01:45:02.208Z,25.05
2018-02-22T01:46:07.647Z,25.62
2018-02-22T01:47:10.983Z,26.00
2018-02-22T01:48:14.319Z,25.17
2018-02-22T01:49:17.816Z,25.37
2018-02-22T01:50:21.188Z,25.75
2018-02-22T01:51:24.539Z,25.02
2018-02-22T01:52:27.866Z,25.37
2018-02-22T01:53:31.191Z,23.50
2018-02-22T01:54:34.577Z,24.60
2018-02-22T01:55:38.439Z,25.23
2018-02-22T01:56:42.113Z,23.40
2018-02-22T01:57:45.451Z,26.90
2018-02-22T01:58:48.850Z,26.10
2018-02-22T01:59:52.648Z,24.05
2018-02-22T02:00:58.610Z,26.05
2018-02-22T02:02:02.037Z,25.80
2018-02-22T02:03:05.690Z,24.77
2018-02-22T02:04:09.098Z,26.85
2018-02-22T02:05:13.304Z,25.83
2018-02-22T02:06:16.706Z,25.33
2018-02-22T02:07:24.716Z,24.83
2018-02-22T02:08:47.839Z,25.58
2018-02-22T02:09:52.483Z,25.90
2018-02-22T02:10:56.284Z,26.02
2018-02-22T02:11:59.664Z,27.37
2018-02-22T02:13:04.077Z,23.40
2018-02-22T02:14:07.404Z,26.00
2018-02-22T02:15:10.785Z,25.48
2018-02-22T02:16:14.108Z,23.70
2018-02-22T02:17:17.518Z,24.60
2018-02-22T02:18:20.879Z,23.17
2018-02-22T02:19:24.293Z,26.20
2018-02-22T02:20:27.645Z,24.27
2018-02-22T02:21:31.025Z,24.35
2018-02-22T02:22:35.293Z,26.27
2018-02-22T02:23:38.666Z,23.83
2018-02-22T02:24:42.116Z,25.70
2018-02-22T02:25:46.597Z,25.62
2018-02-22T02:26:49.954Z,26.83
2018-02-22T02:27:58.852Z,23.92
2018-02-22T02:29:02.807Z,22.52
2018-02-22T02:30:06.137Z,24.83
2018-02-22T02:31:09.547Z,23.75
2018-02-22T02:32:12.953Z,24.90
2018-02-22T02:33:17.201Z,24.50
2018-02-22T02:34:20.572Z,26.77
2018-02-22T02:35:23.891Z,23.60
2018-02-22T02:36:27.236Z,24.60
2018-02-22T02:37:30.669Z,26.00
2018-02-22T02:38:34.030Z,25.25
2018-02-22T02:39:37.400Z,26.62
2018-02-22T02:40:40.786Z,22.83
2018-02-22T02:41:44.145Z,25.52
2018-02-22T02:42:47.506Z,24.50
2018-02-22T02:43:51.045Z,24.87
2018-02-22T02:44:54.949Z,23.15
2018-02-22T02:45:58.358Z,25.55
2018-02-22T02:47:01.664Z,24.77
2018-02-22T02:48:05.094Z,25.80
2018-02-22T02:49:08.399Z,25.35
2018-02-22T02:50:11.772Z,24.50
2018-02-22T02:51:15.092Z,23.67
2018-02-22T02:52:18.421Z,22.75
2018-02-22T02:53:21.743Z,22.75
2018-02-22T02:54:25.058Z,24.02
2018-02-22T02:55:28.461Z,23.95
2018-02-22T02:56:31.795Z,23.90
2018-02-22T02:57:36.012Z,23.30
2018-02-22T02:58:39.386Z,24.73
2018-02-22T02:59:42.783Z,22.73
2018-02-22T03:00:46.180Z,23.08
2018-02-22T03:01:49.550Z,24.48
2018-02-22T03:02:52.956Z,22.15
2018-02-22T03:03:56.268Z,24.23
2018-02-22T03:04:59.629Z,22.30
2018-02-22T03:06:03.032Z,23.17
2018-02-22T03:07:06.367Z,23.70
2018-02-22T03:08:09.774Z,24.12
2018-02-22T03:09:13.208Z,23.30
2018-02-22T03:10:16.544Z,22.70
2018-02-22T03:11:19.975Z,24.83
2018-02-22T03:12:23.320Z,24.27
2018-02-22T03:13:26.735Z,23.70
2018-02-22T03:14:30.069Z,25.52
2018-02-22T03:15:33.472Z,24.65
2018-02-22T03:16:36.845Z,25.23
2018-02-22T03:17:40.251Z,25.25
2018-02-22T03:18:43.636Z,25.10
2018-02-22T03:19:47.052Z,24.42
2018-02-22T03:20:50.429Z,23.70
2018-02-22T03:21:53.839Z,25.05
2018-02-22T03:22:57.269Z,25.88
2018-02-22T03:24:00.665Z,23.40
2018-02-22T03:25:04.144Z,21.00
2018-02-22T03:26:07.532Z,25.40
2018-02-22T03:27:10.931Z,25.37
2018-02-22T03:28:14.319Z,25.60
2018-02-22T03:29:17.656Z,24.17
2018-02-22T03:30:21.008Z,24.60
2018-02-22T03:31:24.393Z,25.30
2018-02-22T03:32:27.831Z,23.83
2018-02-22T03:33:31.165Z,24.30
2018-02-22T03:34:34.529Z,24.95
2018-02-22T03:35:37.916Z,25.40
2018-02-22T03:36:41.252Z,26.08
2018-02-22T03:37:44.637Z,24.85
2018-02-22T03:38:47.997Z,23.08
2018-02-22T03:39:51.473Z,26.10
2018-02-22T03:40:54.796Z,23.15
2018-02-22T03:41:58.236Z,24.40
2018-02-22T03:43:01.577Z,24.23
2018-02-22T03:44:05.037Z,24.98
2018-02-22T03:45:08.364Z,26.95
2018-02-22T03:46:11.710Z,24.65
2018-02-22T03:47:15.019Z,24.58
2018-02-22T03:48:18.405Z,22.98
2018-02-22T03:49:21.740Z,25.02
2018-02-22T03:50:25.120Z,25.62
2018-02-22T03:51:28.449Z,25.70
2018-02-22T03:52:32.521Z,24.30
2018-02-22T03:53:35.904Z,26.00
2018-02-22T03:54:39.267Z,24.75
2018-02-22T03:55:42.665Z,25.92
2018-02-22T03:56:46.001Z,22.40
2018-02-22T03:57:49.335Z,23.90
2018-02-22T03:58:52.699Z,25.00
2018-02-22T03:59:56.056Z,25.65
2018-02-22T04:00:59.475Z,23.73
2018-02-22T04:02:02.832Z,24.50
2018-02-22T04:03:06.218Z,23.55
2018-02-22T04:04:09.569Z,23.38
2018-02-22T04:05:12.970Z,23.95
2018-02-22T04:06:17.358Z,25.37
2018-02-22T04:07:20.683Z,26.25
2018-02-22T04:08:24.105Z,24.20
2018-02-22T04:09:27.521Z,25.70
2018-02-22T04:10:30.862Z,25.42
2018-02-22T04:11:34.209Z,24.40
2018-02-22T04:12:37.527Z,22.98
2018-02-22T04:13:40.850Z,24.37
2018-02-22T04:14:44.220Z,23.10
2018-02-22T04:15:47.673Z,22.67
2018-02-22T04:16:52.082Z,24.20
2018-02-22T04:17:55.432Z,23.50
2018-02-22T04:18:58.805Z,24.45
2018-02-22T04:20:02.219Z,24.55
2018-02-22T04:21:05.541Z,25.23
2018-02-22T04:22:08.890Z,23.23
2018-02-22T04:23:12.293Z,25.52
2018-02-22T04:24:16.591Z,26.30
2018-02-22T04:25:19.968Z,24.02
2018-02-22T04:26:23.418Z,22.73
2018-02-22T04:27:26.829Z,21.65
2018-02-22T04:28:30.193Z,23.00
2018-02-22T04:29:33.547Z,23.20
2018-02-22T04:30:37.046Z,23.50
2018-02-22T04:31:40.377Z,23.67
2018-02-22T04:32:43.695Z,22.20
2018-02-22T04:33:47.148Z,22.42
2018-02-22T04:34:50.558Z,22.08
2018-02-22T04:35:54.200Z,23.40
2018-02-22T04:36:57.528Z,24.65
2018-02-22T04:38:00.938Z,23.23
2018-02-22T04:39:04.404Z,24.73
2018-02-22T04:40:08.661Z,23.15
2018-02-22T04:41:12.098Z,21.58
2018-02-22T04:42:15.468Z,23.55
2018-02-22T04:43:19.759Z,24.20
2018-02-22T04:44:23.268Z,23.58
2018-02-22T04:45:26.629Z,26.00
2018-02-22T04:46:30.323Z,22.92
2018-02-22T04:47:33.692Z,23.35
2018-02-22T04:48:37.098Z,22.95
2018-02-22T04:49:40.515Z,22.35
2018-02-22T04:50:43.856Z,21.85
2018-02-22T04:51:47.337Z,24.87
2018-02-22T04:52:50.702Z,23.65
2018-02-22T04:53:54.042Z,23.48
2018-02-22T04:54:57.365Z,24.33
2018-02-22T04:56:00.795Z,22.48
2018-02-22T04:57:04.152Z,23.73
2018-02-22T04:58:07.568Z,23.65
2018-02-22T04:59:10.883Z,22.13
2018-02-22T05:00:14.335Z,24.12
2018-02-22T05:01:17.708Z,21.67
2018-02-22T05:02:21.089Z,21.73
2018-02-22T05:03:24.408Z,21.08
2018-02-22T05:04:27.756Z,22.85
2018-02-22T05:05:31.072Z,20.90
2018-02-22T05:06:34.468Z,20.88
2018-02-22T05:07:37.885Z,20.55
2018-02-22T05:08:41.214Z,20.80
2018-02-22T05:09:44.584Z,19.65
2018-02-22T05:10:47.916Z,19.45
2018-02-22T05:11:51.230Z,18.73
2018-02-22T05:12:54.575Z,21.75
2018-02-22T05:13:57.925Z,21.08
2018-02-22T05:15:01.304Z,20.45
2018-02-22T05:16:04.665Z,20.65
2018-02-22T05:17:07.991Z,19.05
2018-02-22T05:18:11.708Z,20.65
2018-02-22T05:19:15.133Z,21.65
2018-02-22T05:20:18.593Z,21.95
2018-02-22T05:21:21.945Z,22.55
2018-02-22T05:22:25.414Z,22.85
2018-02-22T05:23:28.823Z,20.52
2018-02-22T05:24:32.261Z,20.35
2018-02-22T05:25:35.610Z,22.37
2018-02-22T05:26:38.953Z,21.00
2018-02-22T05:27:42.282Z,21.20
2018-02-22T05:28:45.649Z,21.42
2018-02-22T05:29:49.004Z,20.88
2018-02-22T05:30:52.317Z,21.77
2018-02-22T05:31:56.109Z,21.05
2018-02-22T05:32:59.431Z,21.75
2018-02-22T05:34:02.915Z,20.45
2018-02-22T05:35:06.254Z,20.80
2018-02-22T05:36:09.601Z,20.98
2018-02-22T05:37:13.518Z,22.73
2018-02-22T05:38:16.832Z,21.90
2018-02-22T05:39:20.224Z,21.75
2018-02-22T05:40:24.379Z,20.40
2018-02-22T05:41:27.718Z,23.75
2018-02-22T05:42:31.103Z,22.50
2018-02-22T05:43:34.428Z,23.35
2018-02-22T05:44:40.535Z,21.48
2018-02-22T05:45:43.839Z,21.67
2018-02-22T05:46:47.314Z,21.12
2018-02-22T05:47:50.710Z,21.60
2018-02-22T05:48:54.064Z,21.08
2018-02-22T05:49:58.119Z,22.30
2018-02-22T05:51:01.654Z,22.33
2018-02-22T05:52:05.208Z,20.83
2018-02-22T05:53:08.578Z,20.52
2018-02-22T05:54:11.947Z,21.73
2018-02-22T05:55:15.453Z,19.77
2018-02-22T05:56:18.889Z,20.73
2018-02-22T05:57:22.290Z,19.90
2018-02-22T05:58:27.455Z,20.62
2018-02-22T05:59:30.790Z,19.27
2018-02-22T06:00:35.951Z,20.35
2018-02-22T06:01:39.350Z,21.20
2018-02-22T06:02:42.782Z,20.75
2018-02-22T06:03:46.105Z,21.87
2018-02-22T06:04:49.664Z,21.23
2018-02-22T06:05:53.757Z,20.08
2018-02-22T06:06:57.168Z,19.83
2018-02-22T06:08:00.488Z,20.35
2018-02-22T06:09:03.877Z,21.42
2018-02-22T06:10:07.897Z,20.98
2018-02-22T06:11:13.202Z,20.77
2018-02-22T06:12:16.551Z,20.98
2018-02-22T06:13:19.953Z,20.80
2018-02-22T06:14:23.464Z,21.58
2018-02-22T06:15:26.789Z,22.30
2018-02-22T06:16:30.164Z,19.92
2018-02-22T06:17:33.474Z,22.10
2018-02-22T06:18:36.908Z,21.77
2018-02-22T06:19:40.226Z,19.98
2018-02-22T06:20:43.636Z,23.65
2018-02-22T06:21:47.208Z,21.48
2018-02-22T06:22:50.734Z,22.55
2018-02-22T06:23:54.180Z,20.40
2018-02-22T06:24:57.628Z,20.10
2018-02-22T06:26:01.205Z,21.58
2018-02-22T06:27:05.336Z,20.67
2018-02-22T06:28:08.751Z,22.08
2018-02-22T06:29:12.225Z,22.60
2018-02-22T06:30:16.416Z,21.62
2018-02-22T06:31:21.473Z,22.62
2018-02-22T06:32:25.082Z,23.42
2018-02-22T06:33:31.150Z,20.60
2018-02-22T06:34:35.376Z,23.05
2018-02-22T06:35:38.830Z,21.70
2018-02-22T06:36:42.156Z,19.62
2018-02-22T06:37:45.521Z,23.52
2018-02-22T06:38:48.851Z,21.92
2018-02-22T06:39:52.204Z,20.80
2018-02-22T06:40:55.553Z,22.48
2018-02-22T06:41:58.875Z,20.50
2018-02-22T06:43:02.220Z,19.20
2018-02-22T06:44:05.708Z,20.67
2018-02-22T06:45:09.185Z,23.15
2018-02-22T06:46:14.131Z,21.70
2018-02-22T06:47:17.962Z,20.67
2018-02-22T06:48:21.346Z,19.37
2018-02-22T06:49:24.742Z,21.25
2018-02-22T06:50:28.182Z,21.77
2018-02-22T06:51:31.680Z,20.42
2018-02-22T06:52:35.050Z,22.85
2018-02-22T06:53:38.408Z,22.62
2018-02-22T06:54:41.734Z,21.42
2018-02-22T06:55:45.280Z,21.50
2018-02-22T06:56:48.816Z,18.77
2018-02-22T06:57:52.308Z,22.13
2018-02-22T06:58:55.732Z,21.52
2018-02-22T06:59:59.070Z,20.88
2018-02-22T07:01:02.399Z,20.52
2018-02-22T07:02:05.799Z,20.00
2018-02-22T07:03:09.273Z,20.95
2018-02-22T07:04:12.604Z,19.75
2018-02-22T07:05:15.965Z,20.05
2018-02-22T07:06:19.329Z,19.12
2018-02-22T07:07:22.626Z,21.05
2018-02-22T07:08:25.991Z,19.73
2018-02-22T07:09:29.366Z,15.98
2018-02-22T07:10:32.752Z,19.35
2018-02-22T07:11:36.191Z,16.80
2018-02-22T07:12:39.566Z,17.92
2018-02-22T07:13:42.991Z,17.80
2018-02-22T07:14:46.821Z,16.08
2018-02-22T07:15:50.188Z,19.35
2018-02-22T07:16:53.540Z,18.80
2018-02-22T07:17:56.959Z,19.48
2018-02-22T07:19:00.452Z,20.05
2018-02-22T07:20:03.796Z,18.35
2018-02-22T07:21:07.279Z,19.87
2018-02-22T07:22:10.622Z,22.70
2018-02-22T07:23:16.790Z,17.55
2018-02-22T07:24:17.347Z,18.95
2018-02-22T07:25:21.396Z,18.92
2018-02-22T07:26:24.810Z,19.25
2018-02-22T07:27:28.185Z,12.80
2018-02-22T07:28:31.691Z,19.15
2018-02-22T07:29:35.068Z,15.63
2018-02-22T07:30:38.566Z,17.55
2018-02-22T07:31:41.885Z,20.00
2018-02-22T07:32:45.202Z,16.05
2018-02-22T07:33:48.739Z,12.55
2018-02-22T07:34:52.057Z,22.08
2018-02-22T07:35:55.487Z,17.87
2018-02-22T07:36:59.780Z,18.75
2018-02-22T07:38:03.146Z,17.67
2018-02-22T07:39:06.565Z,17.80
2018-02-22T07:40:09.975Z,11.98
2018-02-22T07:41:13.372Z,17.58
2018-02-22T07:42:17.658Z,13.95
2018-02-22T07:43:21.096Z,16.23
2018-02-22T07:44:24.430Z,14.07
2018-02-22T07:45:27.784Z,13.00
2018-02-22T07:46:31.257Z,12.52
2018-02-22T07:47:34.660Z,16.17
2018-02-22T07:48:38.042Z,13.38
2018-02-22T07:49:41.392Z,18.65
2018-02-22T07:50:44.847Z,16.87
2018-02-22T07:51:48.498Z,17.23
2018-02-22T07:52:51.833Z,18.10
2018-02-22T07:53:55.195Z,18.35
2018-02-22T07:54:58.570Z,16.95
2018-02-22T07:56:02.004Z,18.35
2018-02-22T07:57:05.399Z,17.23
2018-02-22T07:58:08.765Z,16.80
2018-02-22T07:59:12.090Z,15.13
2018-02-22T08:00:15.432Z,16.52
2018-02-22T08:01:21.196Z,15.70
2018-02-22T08:02:25.514Z,17.23
2018-02-22T08:03:28.885Z,11.98
2018-02-22T08:04:32.288Z,15.85
2018-02-22T08:05:35.698Z,15.95
2018-02-22T08:06:39.008Z,14.38
2018-02-22T08:07:42.466Z,16.00
2018-02-22T08:08:47.329Z,12.10
2018-02-22T08:09:50.661Z,15.35
2018-02-22T08:10:54.242Z,15.52
2018-02-22T08:11:57.629Z,14.43
2018-02-22T08:13:01.280Z,13.43
2018-02-22T08:14:05.578Z,12.70
2018-02-22T08:15:08.889Z,15.48
2018-02-22T08:16:12.211Z,15.20
2018-02-22T08:17:15.555Z,13.60
2018-02-22T08:18:18.965Z,12.70
2018-02-22T08:19:22.277Z,14.35
2018-02-22T08:20:27.612Z,15.40
2018-02-22T08:21:30.987Z,17.60
2018-02-22T08:22:34.324Z,18.45
2018-02-22T08:23:37.697Z,17.08
2018-02-22T08:24:41.006Z,12.65
2018-02-22T08:25:44.344Z,13.55
2018-02-22T08:26:47.690Z,13.55
2018-02-22T08:27:52.417Z,15.05
2018-02-22T08:28:55.763Z,13.60
2018-02-22T08:29:59.160Z,14.68
2018-02-22T08:31:02.558Z,11.95
2018-02-22T08:32:05.974Z,16.67
2018-02-22T08:33:09.322Z,15.15
2018-02-22T08:34:12.724Z,12.75
2018-02-22T08:35:16.131Z,14.35
2018-02-22T08:36:19.505Z,14.85
2018-02-22T08:37:22.900Z,12.82
2018-02-22T08:38:26.287Z,9.40
2018-02-22T08:39:30.048Z,11.98
2018-02-22T08:40:33.407Z,16.42
2018-02-22T08:41:36.723Z,14.60
2018-02-22T08:42:40.094Z,12.95
2018-02-22T08:43:43.473Z,17.30
2018-02-22T08:44:46.849Z,11.52
2018-02-22T08:45:50.265Z,15.20
2018-02-22T08:46:53.632Z,15.35
2018-02-22T08:47:56.944Z,14.18
2018-02-22T08:49:00.334Z,12.98
2018-02-22T08:50:03.705Z,14.20
2018-02-22T08:51:07.025Z,14.02
2018-02-22T08:52:10.381Z,11.55
2018-02-22T08:53:13.713Z,15.60
2018-02-22T08:54:17.176Z,10.80
2018-02-22T08:55:20.524Z,14.98
2018-02-22T08:56:23.833Z,11.85
2018-02-22T08:57:27.233Z,15.85
2018-02-22T08:58:30.570Z,12.05
2018-02-22T08:59:33.908Z,12.40
2018-02-22T09:00:37.333Z,14.38
2018-02-22T09:01:40.719Z,12.88
2018-02-22T09:02:44.028Z,16.83
2018-02-22T09:03:47.370Z,7.57
2018-02-22T09:04:50.735Z,13.02
2018-02-22T09:05:54.102Z,13.30
2018-02-22T09:06:57.470Z,9.45
2018-02-22T09:08:00.799Z,13.15
2018-02-22T09:09:04.116Z,8.35
2018-02-22T09:10:07.429Z,13.10
2018-02-22T09:11:10.896Z,13.35
2018-02-22T09:12:14.262Z,14.80
2018-02-22T09:13:17.787Z,13.48
2018-02-22T09:14:21.116Z,14.05
2018-02-22T09:15:24.434Z,16.77
2018-02-22T09:16:27.831Z,11.27
2018-02-22T09:17:31.238Z,15.13
2018-02-22T09:18:34.548Z,12.18
2018-02-22T09:19:38.028Z,14.48
2018-02-22T09:20:41.398Z,13.70
2018-02-22T09:21:45.017Z,12.88
2018-02-22T09:22:48.370Z,14.75
2018-02-22T09:23:51.668Z,14.45
2018-02-22T09:24:55.018Z,11.95
2018-02-22T09:25:58.368Z,10.60
2018-02-22T09:27:01.730Z,15.40
2018-02-22T09:28:05.255Z,15.40
2018-02-22T09:29:08.949Z,11.55
2018-02-22T09:30:12.293Z,13.75
2018-02-22T09:31:15.605Z,12.60
2018-02-22T09:32:18.973Z,15.40
2018-02-22T09:33:22.361Z,11.73
2018-02-22T09:34:26.389Z,14.87
2018-02-22T09:35:29.810Z,14.98
2018-02-22T09:36:33.205Z,11.68
2018-02-22T09:37:36.577Z,14.70
2018-02-22T09:38:39.909Z,11.12
2018-02-22T09:39:43.240Z,12.52
2018-02-22T09:40:46.683Z,14.02
2018-02-22T09:41:49.982Z,9.75
2018-02-22T09:42:53.317Z,10.02
2018-02-22T09:43:56.753Z,12.32
2018-02-22T09:45:00.076Z,14.50
2018-02-22T09:46:03.632Z,9.60
2018-02-22T09:47:07.025Z,15.02
2018-02-22T09:48:10.367Z,14.35
2018-02-22T09:49:13.745Z,8.15
2018-02-22T09:50:17.154Z,10.60
2018-02-22T09:51:21.204Z,14.23
2018-02-22T09:52:24.875Z,13.20
2018-02-22T09:53:28.310Z,10.43
2018-02-22T09:54:31.684Z,9.95
2018-02-22T09:55:36.042Z,14.07
2018-02-22T09:56:39.342Z,8.15
2018-02-22T09:57:42.673Z,12.40
2018-02-22T09:58:46.037Z,13.00
2018-02-22T09:59:49.427Z,14.95
2018-02-22T10:00:52.826Z,14.70
2018-02-22T10:01:56.197Z,12.25
2018-02-22T10:02:59.650Z,11.02
2018-02-22T10:04:02.995Z,13.65
2018-02-22T10:05:06.314Z,11.88
2018-02-22T10:06:09.680Z,11.60
2018-02-22T10:07:13.011Z,11.95
2018-02-22T10:08:16.315Z,9.88
2018-02-22T10:09:19.767Z,9.73
2018-02-22T10:10:23.104Z,9.65
2018-02-22T10:11:26.429Z,7.25
2018-02-22T10:12:29.738Z,9.88
2018-02-22T10:13:33.094Z,8.75
2018-02-22T10:14:36.483Z,9.35
2018-02-22T10:15:39.777Z,9.38
2018-02-22T10:16:43.157Z,12.55
2018-02-22T10:17:46.603Z,9.48
2018-02-22T10:18:49.982Z,10.25
2018-02-22T10:19:53.458Z,7.70
2018-02-22T10:20:56.784Z,8.25
2018-02-22T10:22:00.117Z,9.88
2018-02-22T10:23:03.424Z,9.20
2018-02-22T10:24:06.813Z,13.80
2018-02-22T10:25:10.172Z,14.00
2018-02-22T10:26:13.482Z,14.80
2018-02-22T10:27:16.853Z,13.75
2018-02-22T10:28:20.121Z,11.90
2018-02-22T10:29:23.447Z,12.70
2018-02-22T10:30:26.832Z,11.02
2018-02-22T10:31:30.179Z,13.05
2018-02-22T10:32:33.515Z,9.50
2018-02-22T10:33:37.724Z,9.43
2018-02-22T10:34:41.048Z,11.05
2018-02-22T10:35:44.603Z,8.57
2018-02-22T10:36:48.015Z,8.85
2018-02-22T10:37:51.333Z,10.50
2018-02-22T10:38:54.707Z,12.95
2018-02-22T10:39:58.020Z,10.85
2018-02-22T10:41:01.413Z,68.28
2018-02-22T10:42:04.812Z,8.80
2018-02-22T10:43:09.166Z,10.30
2018-02-22T10:44:12.501Z,9.52
2018-02-22T10:45:15.835Z,11.65
2018-02-22T10:46:19.209Z,12.37
2018-02-22T10:47:22.633Z,11.50
2018-02-22T10:48:26.214Z,8.95
2018-02-22T10:49:29.543Z,9.07
2018-02-22T10:50:33.235Z,6.90
2018-02-22T10:51:36.620Z,10.43
2018-02-22T10:52:39.936Z,8.57
2018-02-22T10:53:43.397Z,11.23
2018-02-22T10:54:46.828Z,7.32
2018-02-22T10:55:50.122Z,7.85
2018-02-22T10:56:53.518Z,10.40
2018-02-22T10:57:56.904Z,11.60
2018-02-22T10:59:00.268Z,7.68
2018-02-22T11:00:03.691Z,7.40
2018-02-22T11:01:12.861Z,8.80
2018-02-22T11:02:21.974Z,8.85
2018-02-22T11:03:25.323Z,7.78
2018-02-22T11:04:28.727Z,7.10
2018-02-22T11:05:32.994Z,7.25
2018-02-22T11:06:36.351Z,9.30
2018-02-22T11:07:39.686Z,8.15
2018-02-22T11:08:43.021Z,8.05
2018-02-22T11:09:46.368Z,7.53
2018-02-22T11:10:49.728Z,9.30
2018-02-22T11:11:53.082Z,12.15
2018-02-22T11:12:56.416Z,10.65
2018-02-22T11:13:59.725Z,6.53
2018-02-22T11:15:03.107Z,11.18
2018-02-22T11:16:06.559Z,8.75
2018-02-22T11:17:09.933Z,90.87
2018-02-22T11:18:13.280Z,33.33
2018-02-22T11:19:16.587Z,18.87
2018-02-22T11:20:19.918Z,17.12
2018-02-22T11:21:23.312Z,15.45
2018-02-22T11:22:26.637Z,14.73
2018-02-22T11:23:30.073Z,11.77
2018-02-22T11:24:33.410Z,11.20
2018-02-22T11:25:36.741Z,12.43
2018-02-22T11:26:40.215Z,13.40
2018-02-22T11:27:43.511Z,8.45
2018-02-22T11:28:46.839Z,9.90
2018-02-22T11:29:50.144Z,11.45
2018-02-22T11:30:53.475Z,13.95
2018-02-22T11:31:56.772Z,13.52
2018-02-22T11:33:00.178Z,11.65
2018-02-22T11:34:03.679Z,11.30
2018-02-22T11:35:07.038Z,12.45
2018-02-22T11:36:10.359Z,10.75
2018-02-22T11:37:13.676Z,12.10
2018-02-22T11:38:17.677Z,11.77
2018-02-22T11:39:21.162Z,10.77
2018-02-22T11:40:24.549Z,11.85
2018-02-22T11:41:27.855Z,11.30
2018-02-22T11:42:31.197Z,9.57
2018-02-22T11:43:34.524Z,7.93
2018-02-22T11:44:37.953Z,11.75
2018-02-22T11:45:41.262Z,9.55
2018-02-22T11:46:44.867Z,7.18
2018-02-22T11:47:48.237Z,8.57
2018-02-22T11:48:51.541Z,9.75
2018-02-22T11:49:55.022Z,8.50
2018-02-22T11:50:58.390Z,8.88
2018-02-22T11:52:01.680Z,10.13
2018-02-22T11:53:04.984Z,9.93
2018-02-22T11:54:08.383Z,11.23
2018-02-22T11:55:12.054Z,10.05
2018-02-22T11:56:15.544Z,7.15
2018-02-22T11:57:18.902Z,8.35
2018-02-22T11:58:22.219Z,7.60
2018-02-22T11:59:25.638Z,7.25
2018-02-22T12:00:28.970Z,8.15
2018-02-22T12:01:32.286Z,8.50
2018-02-22T12:02:35.766Z,9.88
2018-02-22T12:03:39.949Z,6.57
2018-02-22T12:04:43.373Z,9.35
2018-02-22T12:05:46.712Z,7.00
2018-02-22T12:06:50.047Z,6.05
2018-02-22T12:07:53.394Z,7.80
2018-02-22T12:08:56.814Z,8.20
2018-02-22T12:10:01.108Z,8.88
2018-02-22T12:11:04.432Z,8.25
2018-02-22T12:12:07.741Z,9.50
2018-02-22T12:13:11.092Z,6.57
2018-02-22T12:14:14.465Z,8.80
2018-02-22T12:15:17.802Z,9.25
2018-02-22T12:16:21.216Z,8.18
2018-02-22T12:17:25.225Z,8.10
2018-02-22T12:18:29.654Z,6.97
2018-02-22T12:19:33.088Z,6.57
2018-02-22T12:20:36.405Z,6.18
2018-02-22T12:21:39.846Z,8.57
2018-02-22T12:22:43.229Z,6.07
2018-02-22T12:23:46.630Z,6.70
2018-02-22T12:24:50.018Z,8.05
2018-02-22T12:25:53.299Z,8.75
2018-02-22T12:26:56.714Z,8.57
2018-02-22T12:28:00.034Z,8.07
2018-02-22T12:29:03.355Z,6.45
2018-02-22T12:30:07.137Z,7.32
2018-02-22T12:31:10.461Z,8.65
2018-02-22T12:32:13.818Z,7.30
2018-02-22T12:33:17.102Z,5.93
2018-02-22T12:34:21.399Z,7.62
2018-02-22T12:35:24.712Z,9.27
2018-02-22T12:36:28.009Z,8.23
2018-02-22T12:37:31.364Z,7.75
2018-02-22T12:38:34.685Z,9.43
2018-02-22T12:39:38.853Z,5.95
2018-02-22T12:40:42.176Z,6.70
2018-02-22T12:41:45.497Z,4.87
2018-02-22T12:42:49.500Z,5.85
2018-02-22T12:43:52.848Z,8.48
2018-02-22T12:44:56.169Z,8.00
2018-02-22T12:45:59.570Z,8.18
2018-02-22T12:47:03.923Z,9.65
2018-02-22T12:48:07.276Z,7.35
2018-02-22T12:49:10.577Z,8.45
2018-02-22T12:50:13.874Z,7.43
2018-02-22T12:51:17.248Z,8.30
2018-02-22T12:52:20.582Z,5.82
2018-02-22T12:53:23.934Z,6.80
2018-02-22T12:54:27.220Z,6.95
2018-02-22T12:55:30.581Z,8.60
2018-02-22T12:56:34.354Z,7.22
2018-02-22T12:57:37.671Z,7.05
2018-02-22T12:58:41.623Z,7.47
2018-02-22T12:59:44.930Z,5.93
2018-02-22T13:00:48.228Z,6.35
2018-02-22T13:01:52.208Z,5.35
2018-02-22T13:02:55.520Z,5.72
2018-02-22T13:03:58.913Z,6.70
2018-02-22T13:05:02.337Z,7.12
2018-02-22T13:06:05.653Z,7.03
2018-02-22T13:07:09.005Z,6.70
2018-02-22T13:08:15.292Z,7.43
2018-02-22T13:09:21.029Z,7.22
2018-02-22T13:10:24.324Z,7.93
2018-02-22T13:11:27.723Z,7.15
2018-02-22T13:12:31.088Z,9.02
2018-02-22T13:13:34.397Z,8.73
2018-02-22T13:14:38.265Z,6.40
2018-02-22T13:15:42.024Z,4.75
2018-02-22T13:16:45.341Z,7.80
2018-02-22T13:17:49.627Z,8.80
2018-02-22T13:18:53.027Z,10.43
2018-02-22T13:19:57.219Z,7.03
2018-02-22T13:21:00.641Z,9.35
2018-02-22T13:22:04.037Z,8.05
2018-02-22T13:23:07.458Z,10.00
2018-02-22T13:24:10.912Z,7.87
2018-02-22T13:25:14.324Z,9.68
2018-02-22T13:26:17.721Z,7.43
2018-02-22T13:27:21.047Z,8.20
2018-02-22T13:28:24.384Z,5.95
2018-02-22T13:29:27.778Z,8.95
2018-02-22T13:30:31.187Z,10.85
2018-02-22T13:31:34.504Z,10.80
2018-02-22T13:32:49.462Z,8.73
2018-02-22T13:34:04.662Z,7.90
2018-02-22T13:35:08.509Z,8.32
2018-02-22T13:36:11.906Z,9.45
2018-02-22T13:37:27.053Z,9.85
2018-02-22T13:38:42.300Z,12.15
2018-02-22T13:39:46.420Z,9.00
2018-02-22T13:40:49.813Z,8.82
2018-02-22T13:41:53.125Z,8.05
2018-02-22T13:42:56.613Z,10.05
2018-02-22T13:44:11.624Z,6.18